sensor_id;sensor_type;location;lat;lon;timestamp;temperature;humidity
40816;DHT22;26535;48.788;9.214;2022-10-28T05:03:46;13.80;99.90
40816;DHT22;26535;48.788;9.214;2022-10-28T05:06:11;13.80;99.90
40816;DHT22;26535;48.788;9.214;2022-10-28T05:08:37;13.80;99.90
40816;DHT22;26535;48.788;9.214;2022-10-28T05:11:03;13.80;99.90
40816;DHT22;26535;48.788;9.214;2022-10-28T05:13:29;13.70;99.90
40816;DHT22;26535;48.788;9.214;2022-10-28T05:15:54;13.70;99.90
40816;DHT22;26535;48.788;9.214;2022-10-28T05:18:20;13.80;99.90
40816;DHT22;26535;48.788;9.214;2022-10-28T05:20:46;13.70;99.90
40816;DHT22;26535;48.788;9.214;2022-10-28T05:23:11;13.70;99.90
40816;DHT22;26535;48.788;9.214;2022-10-28T05:25:37;13.70;99.90
40816;DHT22;26535;48.788;9.214;2022-10-28T05:28:04;13.70;99.90
40816;DHT22;26535;48.788;9.214;2022-10-28T05:30:29;13.70;99.90
40816;DHT22;26535;48.788;9.214;2022-10-28T05:32:59;13.60;99.90
40816;DHT22;26535;48.788;9.214;2022-10-28T05:35:25;13.60;99.90
40816;DHT22;26535;48.788;9.214;2022-10-28T05:37:51;13.50;99.90
40816;DHT22;26535;48.788;9.214;2022-10-28T05:40:16;13.40;99.90
40816;DHT22;26535;48.788;9.214;2022-10-28T05:42:42;13.30;99.90
40816;DHT22;26535;48.788;9.214;2022-10-28T05:45:09;13.30;99.90
40816;DHT22;26535;48.788;9.214;2022-10-28T05:47:35;13.30;99.90
40816;DHT22;26535;48.788;9.214;2022-10-28T05:50:01;13.20;99.90
40816;DHT22;26535;48.788;9.214;2022-10-28T05:52:26;13.20;99.90
40816;DHT22;26535;48.788;9.214;2022-10-28T05:54:52;13.20;99.90
40816;DHT22;26535;48.788;9.214;2022-10-28T05:57:21;13.20;99.90
40816;DHT22;26535;48.788;9.214;2022-10-28T05:59:46;13.10;99.90
40816;DHT22;26535;48.788;9.214;2022-10-28T06:02:15;13.10;99.90
40816;DHT22;26535;48.788;9.214;2022-10-28T06:04:40;13.00;99.90
40816;DHT22;26535;48.788;9.214;2022-10-28T06:07:07;13.00;99.90
40816;DHT22;26535;48.788;9.214;2022-10-28T06:09:32;13.00;99.90
40816;DHT22;26535;48.788;9.214;2022-10-28T06:11:58;12.90;99.90
40816;DHT22;26535;48.788;9.214;2022-10-28T06:14:24;12.90;99.90
40816;DHT22;26535;48.788;9.214;2022-10-28T06:16:50;12.80;99.90
40816;DHT22;26535;48.788;9.214;2022-10-28T06:19:18;12.90;99.90
40816;DHT22;26535;48.788;9.214;2022-10-28T06:21:44;12.90;99.90
40816;DHT22;26535;48.788;9.214;2022-10-28T06:24:10;13.00;99.90
40816;DHT22;26535;48.788;9.214;2022-10-28T06:26:36;13.00;99.90
40816;DHT22;26535;48.788;9.214;2022-10-28T06:29:01;13.00;99.90
40816;DHT22;26535;48.788;9.214;2022-10-28T06:31:27;13.00;99.90
40816;DHT22;26535;48.788;9.214;2022-10-28T06:33:53;13.00;99.90
40816;DHT22;26535;48.788;9.214;2022-10-28T06:36:21;13.00;99.90
40816;DHT22;26535;48.788;9.214;2022-10-28T06:38:47;13.00;99.90
40816;DHT22;26535;48.788;9.214;2022-10-28T06:41:13;13.10;99.90
40816;DHT22;26535;48.788;9.214;2022-10-28T06:43:38;13.20;99.90
40816;DHT22;26535;48.788;9.214;2022-10-28T06:46:04;13.20;99.90
40816;DHT22;26535;48.788;9.214;2022-10-28T06:48:30;13.30;99.90
40816;DHT22;26535;48.788;9.214;2022-10-28T06:50:56;13.30;99.90
40816;DHT22;26535;48.788;9.214;2022-10-28T06:53:23;13.40;99.90
40816;DHT22;26535;48.788;9.214;2022-10-28T06:55:56;13.50;99.90
40816;DHT22;26535;48.788;9.214;2022-10-28T06:58:23;13.60;99.90
40816;DHT22;26535;48.788;9.214;2022-10-28T07:00:49;13.80;99.90
40816;DHT22;26535;48.788;9.214;2022-10-28T07:03:16;13.80;99.90
40816;DHT22;26535;48.788;9.214;2022-10-28T07:05:43;13.90;99.90
40816;DHT22;26535;48.788;9.214;2022-10-28T07:08:09;14.00;99.90
40816;DHT22;26535;48.788;9.214;2022-10-28T07:10:35;14.10;99.90
40816;DHT22;26535;48.788;9.214;2022-10-28T07:13:00;14.20;99.90
40816;DHT22;26535;48.788;9.214;2022-10-28T07:15:26;14.30;99.90
40816;DHT22;26535;48.788;9.214;2022-10-28T07:17:56;14.30;99.90
40816;DHT22;26535;48.788;9.214;2022-10-28T07:20:23;14.50;99.90
40816;DHT22;26535;48.788;9.214;2022-10-28T07:23:00;14.50;99.90
40816;DHT22;26535;48.788;9.214;2022-10-28T07:25:28;14.50;99.90
40816;DHT22;26535;48.788;9.214;2022-10-28T07:27:56;14.60;99.90
40816;DHT22;26535;48.788;9.214;2022-10-28T07:30:22;14.60;99.90
40816;DHT22;26535;48.788;9.214;2022-10-28T07:32:48;14.60;99.90
40816;DHT22;26535;48.788;9.214;2022-10-28T07:35:14;14.80;99.90
40816;DHT22;26535;48.788;9.214;2022-10-28T07:37:40;14.90;99.90
40816;DHT22;26535;48.788;9.214;2022-10-28T07:40:06;15.00;99.90
40816;DHT22;26535;48.788;9.214;2022-10-28T07:42:33;15.00;99.90
40816;DHT22;26535;48.788;9.214;2022-10-28T07:44:59;15.10;99.90
40816;DHT22;26535;48.788;9.214;2022-10-28T07:47:25;15.20;99.90
40816;DHT22;26535;48.788;9.214;2022-10-28T07:49:50;15.20;99.90
40816;DHT22;26535;48.788;9.214;2022-10-28T07:52:19;15.20;99.90
40816;DHT22;26535;48.788;9.214;2022-10-28T07:54:45;15.20;99.90
40816;DHT22;26535;48.788;9.214;2022-10-28T07:57:10;15.30;99.90
40816;DHT22;26535;48.788;9.214;2022-10-28T07:59:36;15.20;99.90
40816;DHT22;26535;48.788;9.214;2022-10-28T08:02:02;15.20;99.90
40816;DHT22;26535;48.788;9.214;2022-10-28T08:04:29;15.30;99.90
40816;DHT22;26535;48.788;9.214;2022-10-28T08:06:55;15.30;99.90
40816;DHT22;26535;48.788;9.214;2022-10-28T08:09:21;15.40;99.90
40816;DHT22;26535;48.788;9.214;2022-10-28T08:11:47;15.50;99.90
40816;DHT22;26535;48.788;9.214;2022-10-28T08:14:13;15.60;99.90
40816;DHT22;26535;48.788;9.214;2022-10-28T08:16:39;15.70;99.90
40816;DHT22;26535;48.788;9.214;2022-10-28T08:19:04;15.80;99.90
40816;DHT22;26535;48.788;9.214;2022-10-28T08:21:30;15.80;99.90
40816;DHT22;26535;48.788;9.214;2022-10-28T08:23:56;15.90;99.90
40816;DHT22;26535;48.788;9.214;2022-10-28T08:26:22;16.00;99.90
40816;DHT22;26535;48.788;9.214;2022-10-28T08:28:48;16.10;99.90
40816;DHT22;26535;48.788;9.214;2022-10-28T08:31:13;16.20;99.90
40816;DHT22;26535;48.788;9.214;2022-10-28T08:33:42;16.20;99.90
40816;DHT22;26535;48.788;9.214;2022-10-28T08:36:13;16.30;99.90
40816;DHT22;26535;48.788;9.214;2022-10-28T08:38:39;16.40;99.90
40816;DHT22;26535;48.788;9.214;2022-10-28T08:41:29;16.50;99.90
40816;DHT22;26535;48.788;9.214;2022-10-28T08:49:41;16.80;99.90
40816;DHT22;26535;48.788;9.214;2022-10-28T08:54:48;17.00;99.90
40816;DHT22;26535;48.788;9.214;2022-10-28T08:57:19;17.10;99.90
40816;DHT22;26535;48.788;9.214;2022-10-28T08:59:49;17.20;99.90
40816;DHT22;26535;48.788;9.214;2022-10-28T09:02:24;17.40;99.90
40816;DHT22;26535;48.788;9.214;2022-10-28T09:04:57;17.50;99.90
40816;DHT22;26535;48.788;9.214;2022-10-28T09:07:24;17.70;99.90
40816;DHT22;26535;48.788;9.214;2022-10-28T09:09:51;17.90;99.90
40816;DHT22;26535;48.788;9.214;2022-10-28T09:15:01;18.20;99.90
40816;DHT22;26535;48.788;9.214;2022-10-28T09:17:42;18.20;99.90
40816;DHT22;26535;48.788;9.214;2022-10-28T09:23:30;18.40;99.90
40816;DHT22;26535;48.788;9.214;2022-10-28T09:31:49;18.40;99.90
40816;DHT22;26535;48.788;9.214;2022-10-28T09:34:45;18.50;99.90
40816;DHT22;26535;48.788;9.214;2022-10-28T09:37:27;18.50;99.90
40816;DHT22;26535;48.788;9.214;2022-10-28T09:40:12;18.50;99.90
40816;DHT22;26535;48.788;9.214;2022-10-28T09:42:44;18.40;99.90
40816;DHT22;26535;48.788;9.214;2022-10-28T09:45:19;18.40;99.90
40816;DHT22;26535;48.788;9.214;2022-10-28T09:48:04;18.40;99.90
40816;DHT22;26535;48.788;9.214;2022-10-28T09:50:31;18.30;99.90
40816;DHT22;26535;48.788;9.214;2022-10-28T09:53:19;18.50;99.90
40816;DHT22;26535;48.788;9.214;2022-10-28T09:55:49;18.80;99.90
40816;DHT22;26535;48.788;9.214;2022-10-28T09:58:16;19.10;99.90
40816;DHT22;26535;48.788;9.214;2022-10-28T10:00:43;19.70;99.90
40816;DHT22;26535;48.788;9.214;2022-10-28T10:03:09;20.20;99.90
40816;DHT22;26535;48.788;9.214;2022-10-28T10:05:39;20.60;99.90
40816;DHT22;26535;48.788;9.214;2022-10-28T10:08:11;21.10;99.90
40816;DHT22;26535;48.788;9.214;2022-10-28T10:10:49;21.40;99.90
40816;DHT22;26535;48.788;9.214;2022-10-28T10:13:24;21.50;99.90
40816;DHT22;26535;48.788;9.214;2022-10-28T10:15:55;21.70;99.90
40816;DHT22;26535;48.788;9.214;2022-10-28T10:18:27;21.60;99.80
40816;DHT22;26535;48.788;9.214;2022-10-28T10:20:55;21.60;99.40
40816;DHT22;26535;48.788;9.214;2022-10-28T10:26:14;21.60;98.70
40816;DHT22;26535;48.788;9.214;2022-10-28T10:28:45;21.60;99.00
40816;DHT22;26535;48.788;9.214;2022-10-28T10:31:24;21.80;98.70
40816;DHT22;26535;48.788;9.214;2022-10-28T10:33:55;21.80;98.60
40816;DHT22;26535;48.788;9.214;2022-10-28T10:36:23;21.80;98.60
40816;DHT22;26535;48.788;9.214;2022-10-28T10:38:57;21.60;99.30
40816;DHT22;26535;48.788;9.214;2022-10-28T10:41:42;21.00;99.90
40816;DHT22;26535;48.788;9.214;2022-10-28T10:49:13;20.70;99.90
40816;DHT22;26535;48.788;9.214;2022-10-28T10:51:53;20.80;99.90
40816;DHT22;26535;48.788;9.214;2022-10-28T10:54:22;20.90;99.90
40816;DHT22;26535;48.788;9.214;2022-10-28T10:56:49;20.90;99.90
40816;DHT22;26535;48.788;9.214;2022-10-28T10:59:27;20.90;99.90
40816;DHT22;26535;48.788;9.214;2022-10-28T11:01:54;20.90;99.90
40816;DHT22;26535;48.788;9.214;2022-10-28T11:04:21;20.90;99.90
40816;DHT22;26535;48.788;9.214;2022-10-28T11:06:53;20.90;99.90
40816;DHT22;26535;48.788;9.214;2022-10-28T11:09:31;20.90;99.90
40816;DHT22;26535;48.788;9.214;2022-10-28T11:11:58;21.10;99.90
40816;DHT22;26535;48.788;9.214;2022-10-28T11:14:33;21.50;99.90
40816;DHT22;26535;48.788;9.214;2022-10-28T11:17:02;21.80;99.90
40816;DHT22;26535;48.788;9.214;2022-10-28T11:19:37;22.00;99.70
40816;DHT22;26535;48.788;9.214;2022-10-28T11:30:11;21.70;99.10
40816;DHT22;26535;48.788;9.214;2022-10-28T11:38:37;21.10;99.90
40816;DHT22;26535;48.788;9.214;2022-10-28T11:55:12;20.80;99.90
40816;DHT22;26535;48.788;9.214;2022-10-28T12:01:24;20.60;99.90
40816;DHT22;26535;48.788;9.214;2022-10-28T12:05:46;20.60;99.90
40816;DHT22;26535;48.788;9.214;2022-10-28T12:13:36;21.00;99.90
40816;DHT22;26535;48.788;9.214;2022-10-28T12:19:15;21.60;99.90
40816;DHT22;26535;48.788;9.214;2022-10-28T12:21:49;21.90;99.90
40816;DHT22;26535;48.788;9.214;2022-10-28T12:24:18;22.30;99.20
40816;DHT22;26535;48.788;9.214;2022-10-28T12:26:54;22.60;99.10
40816;DHT22;26535;48.788;9.214;2022-10-28T12:29:29;23.60;98.40
40816;DHT22;26535;48.788;9.214;2022-10-28T12:32:07;24.90;96.50
40816;DHT22;26535;48.788;9.214;2022-10-28T12:35:23;25.50;94.80
40816;DHT22;26535;48.788;9.214;2022-10-28T12:37:24;26.30;93.70
40816;DHT22;26535;48.788;9.214;2022-10-28T12:40:20;27.30;92.30
40816;DHT22;26535;48.788;9.214;2022-10-28T12:42:56;28.00;90.90
40816;DHT22;26535;48.788;9.214;2022-10-28T12:45:24;28.10;90.20
40816;DHT22;26535;48.788;9.214;2022-10-28T12:53:23;30.60;84.80
40816;DHT22;26535;48.788;9.214;2022-10-28T12:55:59;31.40;82.00
40816;DHT22;26535;48.788;9.214;2022-10-28T12:58:35;31.80;78.80
40816;DHT22;26535;48.788;9.214;2022-10-28T13:01:22;31.20;78.00
40816;DHT22;26535;48.788;9.214;2022-10-28T13:03:49;31.10;76.90
40816;DHT22;26535;48.788;9.214;2022-10-28T13:06:55;30.50;77.50
40816;DHT22;26535;48.788;9.214;2022-10-28T13:09:44;30.20;77.60
40816;DHT22;26535;48.788;9.214;2022-10-28T13:12:17;30.30;77.90
40816;DHT22;26535;48.788;9.214;2022-10-28T13:20:42;30.90;75.50
40816;DHT22;26535;48.788;9.214;2022-10-28T13:23:33;31.60;75.00
40816;DHT22;26535;48.788;9.214;2022-10-28T13:26:33;31.60;74.00
40816;DHT22;26535;48.788;9.214;2022-10-28T13:29:02;31.50;74.80
40816;DHT22;26535;48.788;9.214;2022-10-28T13:34:04;30.70;76.10
40816;DHT22;26535;48.788;9.214;2022-10-28T13:36:32;30.50;76.60
40816;DHT22;26535;48.788;9.214;2022-10-28T13:39:24;29.80;78.00
40816;DHT22;26535;48.788;9.214;2022-10-28T13:47:46;29.00;80.90
40816;DHT22;26535;48.788;9.214;2022-10-28T13:50:20;29.00;80.30
40816;DHT22;26535;48.788;9.214;2022-10-28T13:55:56;28.00;82.60
40816;DHT22;26535;48.788;9.214;2022-10-28T13:58:24;27.60;83.20
40816;DHT22;26535;48.788;9.214;2022-10-28T14:00:50;27.30;84.00
40816;DHT22;26535;48.788;9.214;2022-10-28T14:03:18;27.00;85.90
40816;DHT22;26535;48.788;9.214;2022-10-28T14:08:19;26.50;86.50
40816;DHT22;26535;48.788;9.214;2022-10-28T14:11:08;26.40;87.80
40816;DHT22;26535;48.788;9.214;2022-10-28T14:13:47;26.30;89.00
40816;DHT22;26535;48.788;9.214;2022-10-28T14:16:25;26.40;89.50
40816;DHT22;26535;48.788;9.214;2022-10-28T14:19:05;26.30;89.90
40816;DHT22;26535;48.788;9.214;2022-10-28T14:24:28;26.10;89.30
40816;DHT22;26535;48.788;9.214;2022-10-28T14:27:17;25.90;90.40
40816;DHT22;26535;48.788;9.214;2022-10-28T14:46:19;24.90;92.10
40816;DHT22;26535;48.788;9.214;2022-10-28T14:48:51;24.90;92.20
40816;DHT22;26535;48.788;9.214;2022-10-28T14:51:40;24.80;92.20
40816;DHT22;26535;48.788;9.214;2022-10-28T14:54:21;24.70;92.70
40816;DHT22;26535;48.788;9.214;2022-10-28T14:56:53;24.50;92.40
40816;DHT22;26535;48.788;9.214;2022-10-28T15:04:23;24.20;93.70
40816;DHT22;26535;48.788;9.214;2022-10-28T15:06:50;24.10;93.90
40816;DHT22;26535;48.788;9.214;2022-10-28T15:09:22;23.90;93.60
40816;DHT22;26535;48.788;9.214;2022-10-28T15:12:06;23.80;94.60
40816;DHT22;26535;48.788;9.214;2022-10-28T15:17:16;23.50;94.70
40816;DHT22;26535;48.788;9.214;2022-10-28T15:19:44;23.40;95.40
40816;DHT22;26535;48.788;9.214;2022-10-28T15:22:14;23.40;95.30
40816;DHT22;26535;48.788;9.214;2022-10-28T15:24:40;23.30;95.30
40816;DHT22;26535;48.788;9.214;2022-10-28T15:27:10;23.20;96.40
40816;DHT22;26535;48.788;9.214;2022-10-28T15:29:36;23.10;95.90
40816;DHT22;26535;48.788;9.214;2022-10-28T15:32:13;23.10;96.10
40816;DHT22;26535;48.788;9.214;2022-10-28T15:34:41;23.00;95.90
40816;DHT22;26535;48.788;9.214;2022-10-28T15:37:50;22.90;95.90
40816;DHT22;26535;48.788;9.214;2022-10-28T15:42:52;22.70;96.10
40816;DHT22;26535;48.788;9.214;2022-10-28T15:45:26;22.70;96.20
40816;DHT22;26535;48.788;9.214;2022-10-28T15:47:53;22.60;97.00
40816;DHT22;26535;48.788;9.214;2022-10-28T15:53:30;22.40;97.20
40816;DHT22;26535;48.788;9.214;2022-10-28T15:56:26;22.30;97.40
40816;DHT22;26535;48.788;9.214;2022-10-28T16:04:00;21.70;98.10
40816;DHT22;26535;48.788;9.214;2022-10-28T16:06:35;21.60;98.20
40816;DHT22;26535;48.788;9.214;2022-10-28T16:09:17;21.50;98.40
40816;DHT22;26535;48.788;9.214;2022-10-28T16:11:52;21.40;98.50
40816;DHT22;26535;48.788;9.214;2022-10-28T16:19:43;21.10;99.40
40816;DHT22;26535;48.788;9.214;2022-10-28T16:22:14;21.00;99.90
40816;DHT22;26535;48.788;9.214;2022-10-28T16:24:41;20.90;99.90
40816;DHT22;26535;48.788;9.214;2022-10-28T16:27:14;20.80;99.90
40816;DHT22;26535;48.788;9.214;2022-10-28T16:29:40;20.80;99.90
40816;DHT22;26535;48.788;9.214;2022-10-28T16:32:09;20.70;99.90
40816;DHT22;26535;48.788;9.214;2022-10-28T16:34:35;20.60;99.90
40816;DHT22;26535;48.788;9.214;2022-10-28T16:37:01;20.50;99.90
40816;DHT22;26535;48.788;9.214;2022-10-28T16:39:26;20.40;99.90
40816;DHT22;26535;48.788;9.214;2022-10-28T16:41:53;20.30;99.90
40816;DHT22;26535;48.788;9.214;2022-10-28T16:44:20;20.10;99.90
40816;DHT22;26535;48.788;9.214;2022-10-28T16:46:47;20.10;99.90
40816;DHT22;26535;48.788;9.214;2022-10-28T16:49:12;20.10;99.90
40816;DHT22;26535;48.788;9.214;2022-10-28T16:51:38;20.00;99.90
40816;DHT22;26535;48.788;9.214;2022-10-28T16:54:04;20.00;99.90
40816;DHT22;26535;48.788;9.214;2022-10-28T16:56:30;19.90;99.90
40816;DHT22;26535;48.788;9.214;2022-10-28T16:58:55;19.90;99.90
40816;DHT22;26535;48.788;9.214;2022-10-28T17:01:21;19.80;99.90
40816;DHT22;26535;48.788;9.214;2022-10-28T17:03:47;19.80;99.90
40816;DHT22;26535;48.788;9.214;2022-10-28T17:06:12;19.70;99.90
40816;DHT22;26535;48.788;9.214;2022-10-28T17:08:38;19.70;99.90
40816;DHT22;26535;48.788;9.214;2022-10-28T17:11:04;19.60;99.90
40816;DHT22;26535;48.788;9.214;2022-10-28T17:13:30;19.60;99.90
40816;DHT22;26535;48.788;9.214;2022-10-28T17:15:55;19.50;99.90
40816;DHT22;26535;48.788;9.214;2022-10-28T17:18:21;19.40;99.90
40816;DHT22;26535;48.788;9.214;2022-10-28T17:21:00;19.30;99.90
40816;DHT22;26535;48.788;9.214;2022-10-28T17:23:27;19.20;99.90
40816;DHT22;26535;48.788;9.214;2022-10-28T17:25:57;19.00;99.90
40816;DHT22;26535;48.788;9.214;2022-10-28T17:28:23;19.00;99.90
40816;DHT22;26535;48.788;9.214;2022-10-28T17:30:50;18.90;99.90
40816;DHT22;26535;48.788;9.214;2022-10-28T17:33:16;18.80;99.90
40816;DHT22;26535;48.788;9.214;2022-10-28T17:35:42;18.80;99.90
40816;DHT22;26535;48.788;9.214;2022-10-28T17:38:07;18.70;99.90
40816;DHT22;26535;48.788;9.214;2022-10-28T17:40:33;18.60;99.90
40816;DHT22;26535;48.788;9.214;2022-10-28T17:42:59;18.50;99.90
40816;DHT22;26535;48.788;9.214;2022-10-28T17:45:25;18.30;99.90
40816;DHT22;26535;48.788;9.214;2022-10-28T17:47:50;18.30;99.90
40816;DHT22;26535;48.788;9.214;2022-10-28T17:50:16;18.30;99.90
40816;DHT22;26535;48.788;9.214;2022-10-28T17:52:42;18.20;99.90
40816;DHT22;26535;48.788;9.214;2022-10-28T17:55:08;18.20;99.90
40816;DHT22;26535;48.788;9.214;2022-10-28T17:57:34;18.10;99.90
40816;DHT22;26535;48.788;9.214;2022-10-28T17:59:59;18.10;99.90
40816;DHT22;26535;48.788;9.214;2022-10-28T18:02:25;18.10;99.90
40816;DHT22;26535;48.788;9.214;2022-10-28T18:04:51;18.00;99.90
40816;DHT22;26535;48.788;9.214;2022-10-28T18:07:16;17.90;99.90
40816;DHT22;26535;48.788;9.214;2022-10-28T18:09:42;17.80;99.90
40816;DHT22;26535;48.788;9.214;2022-10-28T18:12:08;17.70;99.90
40816;DHT22;26535;48.788;9.214;2022-10-28T18:14:37;17.60;99.90
40816;DHT22;26535;48.788;9.214;2022-10-28T18:17:03;17.50;99.90
40816;DHT22;26535;48.788;9.214;2022-10-28T18:19:29;17.40;99.90
40816;DHT22;26535;48.788;9.214;2022-10-28T18:21:54;17.30;99.90
40816;DHT22;26535;48.788;9.214;2022-10-28T18:24:20;17.20;99.90
40816;DHT22;26535;48.788;9.214;2022-10-28T18:26:47;17.20;99.90
40816;DHT22;26535;48.788;9.214;2022-10-28T18:29:12;17.10;99.90
40816;DHT22;26535;48.788;9.214;2022-10-28T18:31:39;17.00;99.90
40816;DHT22;26535;48.788;9.214;2022-10-28T18:34:06;17.00;99.90
40816;DHT22;26535;48.788;9.214;2022-10-28T18:36:33;17.00;99.90
40816;DHT22;26535;48.788;9.214;2022-10-28T18:39:03;17.00;99.90
40816;DHT22;26535;48.788;9.214;2022-10-28T18:41:30;17.00;99.90
40816;DHT22;26535;48.788;9.214;2022-10-28T18:43:58;17.00;99.90
40816;DHT22;26535;48.788;9.214;2022-10-28T18:46:24;16.90;99.90
40816;DHT22;26535;48.788;9.214;2022-10-28T18:48:50;16.90;99.90
40816;DHT22;26535;48.788;9.214;2022-10-28T18:51:16;16.90;99.90
40816;DHT22;26535;48.788;9.214;2022-10-28T18:53:44;16.80;99.90
40816;DHT22;26535;48.788;9.214;2022-10-28T18:56:14;16.80;99.90
40816;DHT22;26535;48.788;9.214;2022-10-28T18:58:41;16.80;99.90
40816;DHT22;26535;48.788;9.214;2022-10-28T19:01:18;16.70;99.90
40816;DHT22;26535;48.788;9.214;2022-10-28T19:03:44;16.70;99.90
40816;DHT22;26535;48.788;9.214;2022-10-28T19:06:15;16.70;99.90
40816;DHT22;26535;48.788;9.214;2022-10-28T19:08:42;16.70;99.90
40816;DHT22;26535;48.788;9.214;2022-10-28T19:11:10;16.60;99.90
40816;DHT22;26535;48.788;9.214;2022-10-28T19:13:39;16.60;99.90
40816;DHT22;26535;48.788;9.214;2022-10-28T19:16:05;16.60;99.90
40816;DHT22;26535;48.788;9.214;2022-10-28T19:18:31;16.60;99.90
40816;DHT22;26535;48.788;9.214;2022-10-28T19:21:04;16.50;99.90
40816;DHT22;26535;48.788;9.214;2022-10-28T19:23:32;16.50;99.90
40816;DHT22;26535;48.788;9.214;2022-10-28T19:25:58;16.50;99.90
40816;DHT22;26535;48.788;9.214;2022-10-28T19:28:24;16.50;99.90
40816;DHT22;26535;48.788;9.214;2022-10-28T19:30:58;16.50;99.90
40816;DHT22;26535;48.788;9.214;2022-10-28T19:33:25;16.50;99.90
40816;DHT22;26535;48.788;9.214;2022-10-28T19:35:50;16.50;99.90
40816;DHT22;26535;48.788;9.214;2022-10-28T19:38:16;16.50;99.90
40816;DHT22;26535;48.788;9.214;2022-10-28T19:40:42;16.50;99.90
40816;DHT22;26535;48.788;9.214;2022-10-28T19:43:07;16.40;99.90
40816;DHT22;26535;48.788;9.214;2022-10-28T19:45:33;16.40;99.90
40816;DHT22;26535;48.788;9.214;2022-10-28T19:47:59;16.30;99.90
40816;DHT22;26535;48.788;9.214;2022-10-28T19:50:26;16.30;99.90
40816;DHT22;26535;48.788;9.214;2022-10-28T19:52:52;16.20;99.90
40816;DHT22;26535;48.788;9.214;2022-10-28T19:55:17;16.10;99.90
40816;DHT22;26535;48.788;9.214;2022-10-28T19:57:43;16.10;99.90
40816;DHT22;26535;48.788;9.214;2022-10-28T20:00:09;16.10;99.90
40816;DHT22;26535;48.788;9.214;2022-10-28T20:02:38;16.10;99.90
40816;DHT22;26535;48.788;9.214;2022-10-28T20:05:04;16.10;99.90
40816;DHT22;26535;48.788;9.214;2022-10-28T20:07:30;16.20;99.90
40816;DHT22;26535;48.788;9.214;2022-10-28T20:09:55;16.20;99.90
40816;DHT22;26535;48.788;9.214;2022-10-28T20:12:21;16.20;99.90
40816;DHT22;26535;48.788;9.214;2022-10-28T20:14:47;16.10;99.90
40816;DHT22;26535;48.788;9.214;2022-10-28T20:17:12;16.00;99.90
40816;DHT22;26535;48.788;9.214;2022-10-28T20:19:39;16.00;99.90
40816;DHT22;26535;48.788;9.214;2022-10-28T20:22:05;15.90;99.90
40816;DHT22;26535;48.788;9.214;2022-10-28T20:24:31;15.80;99.90
40816;DHT22;26535;48.788;9.214;2022-10-28T20:26:56;15.80;99.90
40816;DHT22;26535;48.788;9.214;2022-10-28T20:29:22;15.80;99.90
40816;DHT22;26535;48.788;9.214;2022-10-28T20:31:48;15.80;99.90
40816;DHT22;26535;48.788;9.214;2022-10-28T20:34:13;15.80;99.90
40816;DHT22;26535;48.788;9.214;2022-10-28T20:36:43;15.70;99.90
40816;DHT22;26535;48.788;9.214;2022-10-28T20:39:12;15.70;99.90
40816;DHT22;26535;48.788;9.214;2022-10-28T20:41:39;15.60;99.90
40816;DHT22;26535;48.788;9.214;2022-10-28T20:44:06;15.60;99.90
40816;DHT22;26535;48.788;9.214;2022-10-28T20:46:32;15.50;99.90
40816;DHT22;26535;48.788;9.214;2022-10-28T20:48:58;15.50;99.90
40816;DHT22;26535;48.788;9.214;2022-10-28T20:51:26;15.50;99.90
40816;DHT22;26535;48.788;9.214;2022-10-28T20:53:52;15.40;99.90
40816;DHT22;26535;48.788;9.214;2022-10-28T20:56:26;15.50;99.90
40816;DHT22;26535;48.788;9.214;2022-10-28T20:58:54;15.40;99.90
40816;DHT22;26535;48.788;9.214;2022-10-28T21:01:23;15.30;99.90
40816;DHT22;26535;48.788;9.214;2022-10-28T21:03:52;15.30;99.90
40816;DHT22;26535;48.788;9.214;2022-10-28T21:06:18;15.20;99.90
40816;DHT22;26535;48.788;9.214;2022-10-28T21:08:44;15.10;99.90
40816;DHT22;26535;48.788;9.214;2022-10-28T21:11:12;15.10;99.90
40816;DHT22;26535;48.788;9.214;2022-10-28T21:13:38;15.00;99.90
40816;DHT22;26535;48.788;9.214;2022-10-28T21:16:05;15.00;99.90
40816;DHT22;26535;48.788;9.214;2022-10-28T21:18:32;15.00;99.90
40816;DHT22;26535;48.788;9.214;2022-10-28T21:20:59;15.10;99.90
40816;DHT22;26535;48.788;9.214;2022-10-28T21:23:26;15.10;99.90
40816;DHT22;26535;48.788;9.214;2022-10-28T21:25:56;15.10;99.90
40816;DHT22;26535;48.788;9.214;2022-10-28T21:28:22;15.10;99.90
40816;DHT22;26535;48.788;9.214;2022-10-28T21:30:49;15.10;99.90
40816;DHT22;26535;48.788;9.214;2022-10-28T21:33:15;15.00;99.90
40816;DHT22;26535;48.788;9.214;2022-10-28T21:35:42;15.10;99.90
40816;DHT22;26535;48.788;9.214;2022-10-28T21:38:08;15.00;99.90
40816;DHT22;26535;48.788;9.214;2022-10-28T21:40:35;14.90;99.90
40816;DHT22;26535;48.788;9.214;2022-10-28T21:43:01;14.90;99.90
40816;DHT22;26535;48.788;9.214;2022-10-28T21:45:27;14.80;99.90
40816;DHT22;26535;48.788;9.214;2022-10-28T21:47:53;14.80;99.90
40816;DHT22;26535;48.788;9.214;2022-10-28T21:50:19;14.80;99.90
40816;DHT22;26535;48.788;9.214;2022-10-28T21:52:45;14.70;99.90
40816;DHT22;26535;48.788;9.214;2022-10-28T21:55:11;14.70;99.90
40816;DHT22;26535;48.788;9.214;2022-10-28T21:57:36;14.70;99.90
40816;DHT22;26535;48.788;9.214;2022-10-28T22:00:04;14.70;99.90
40816;DHT22;26535;48.788;9.214;2022-10-28T22:02:39;14.70;99.90
40816;DHT22;26535;48.788;9.214;2022-10-28T22:05:05;14.70;99.90
40816;DHT22;26535;48.788;9.214;2022-10-28T22:07:30;14.60;99.90
40816;DHT22;26535;48.788;9.214;2022-10-28T22:09:56;14.60;99.90
40816;DHT22;26535;48.788;9.214;2022-10-28T22:12:22;14.60;99.90
40816;DHT22;26535;48.788;9.214;2022-10-28T22:14:48;14.60;99.90
40816;DHT22;26535;48.788;9.214;2022-10-28T22:17:13;14.50;99.90
40816;DHT22;26535;48.788;9.214;2022-10-28T22:19:39;14.50;99.90
40816;DHT22;26535;48.788;9.214;2022-10-28T22:22:05;14.40;99.90
40816;DHT22;26535;48.788;9.214;2022-10-28T22:24:31;14.40;99.90
40816;DHT22;26535;48.788;9.214;2022-10-28T22:26:56;14.40;99.90
40816;DHT22;26535;48.788;9.214;2022-10-28T22:29:22;14.30;99.90
40816;DHT22;26535;48.788;9.214;2022-10-28T22:31:48;14.30;99.90
40816;DHT22;26535;48.788;9.214;2022-10-28T22:34:13;14.30;99.90
40816;DHT22;26535;48.788;9.214;2022-10-28T22:36:39;14.30;99.90
40816;DHT22;26535;48.788;9.214;2022-10-28T22:39:07;14.20;99.90
40816;DHT22;26535;48.788;9.214;2022-10-28T22:41:33;14.20;99.90
40816;DHT22;26535;48.788;9.214;2022-10-28T22:44:00;14.20;99.90
40816;DHT22;26535;48.788;9.214;2022-10-28T22:46:29;14.10;99.90
40816;DHT22;26535;48.788;9.214;2022-10-28T22:48:55;14.10;99.90
40816;DHT22;26535;48.788;9.214;2022-10-28T22:51:21;14.10;99.90
40816;DHT22;26535;48.788;9.214;2022-10-28T22:53:47;14.00;99.90
40816;DHT22;26535;48.788;9.214;2022-10-28T22:56:18;14.00;99.90
40816;DHT22;26535;48.788;9.214;2022-10-28T22:58:51;13.90;99.90
40816;DHT22;26535;48.788;9.214;2022-10-28T23:01:18;13.90;99.90
